Accueil
METAR-TAF:

METAR-TAF

Aéroports :

Aéroport d'Iakoutsk

Iakoutsk, Russie

latitude: 62-01N, longitude: 129-43E, altitude: 103 m

Observation

Le bulletin a été fait il y a 41 minutes, à 21:30 UTC
Vent 4 kt de nord-ouest
Température -21°C
Humidité 77%
Pression 1012 hPa
Visibilité 10 km ou plus
pas de nuages en-dessous de 1500 mètres et pas de cumulonimbus.

METAR: UEEE 262130Z 31002MPS CAVOK M21/M24 Q1012 R23L/450064 NOSIG RMK QFE750

Heure: 07:11 (22:11 UTC)

Prévision

Le bulletin a été fait il y a 2 heures et 11 minutes, à 20:00 UTC
Prévision valable du 26 à 21 UTC au 28 à 03 UTC
Vent 6 kt de nord-ouest avec des rafales jusqu'à 16 kt
Visibilité 10 km ou plus
pas de nuages en-dessous de 1500 mètres et pas de cumulonimbus.

TAF: UEEE 262000Z 2621/2803 31003G08MPS CAVOK

Observations et prévisions météorologiques de plus de 4000 aéroports (messages METAR et TAF).

Les stations disponibles sont représentées par des disques jaunes et rouges sur la carte.

Passer la souris dessus pour voir le nom de la station.

Cliquer dessus pour voir les observations et prévisions météorologiques.

Pour changer de carte: cliquez sur les boutons verts avec une croix noire pour zoomer, sur le bouton vert avec un tiret pour effectuer un zoom arrière, ou sur les flèches vertes pour les cartes adjacentes.


METAR-TAF: